Terminal Aerodrome Forecast
Issued by NWS

Home | Current Version | Previous Version | Text Only | Print | Product List | Glossary On
Versions: 1 2 3 4 5 6 7 8 9 10 11 12 13 14 15 16 17 18
000
FTUS46 KMTR 300500
TAFOAK
TAF
KOAK 300532Z 3006/3112 31007KT P6SM FEW150
     FM300900 28005KT P6SM BKN010
     FM301700 30008KT P6SM SCT010
     FM302100 30012KT P6SM FEW150
     FM310500 30007KT P6SM BKN010=

USA.gov is the U.S. government's official web portal to all federal, state and local government web resources and services.